Terminal Aerodrome Forecast
Issued by NWS

Home | Current Version | Previous Version | Text Only | Print | Product List | Glossary On
Versions: 1 2 3 4 5 6 7 8 9 10 11 12
000
FTUS46 KHNX 250500
TAFVIS
TAF
KVIS 250540Z 2506/2606 32007KT P6SM BKN200
     FM251000 32007KT P6SM BKN120
     FM251500 32009KT P6SM OVC090 PROB30 2519/2524 6SM -SHRA BKN035
      OVC060
     FM260000 31007KT P6SM -SHRA BKN035 OVC060=

USA.gov is the U.S. government's official web portal to all federal, state and local government web resources and services.